sensor_id;sensor_type;location;lat;lon;timestamp;P1;durP1;ratioP1;P2;durP2;ratioP2
1078;SDS011;528;47.872;11.478;2022-07-29T04:11:51;4.30;;;2.90;;
1078;SDS011;528;47.872;11.478;2022-07-29T04:14:33;3.20;;;2.90;;
1078;SDS011;528;47.872;11.478;2022-07-29T06:40:22;2.33;;;2.23;;
1078;SDS011;528;47.872;11.478;2022-07-29T06:43:15;2.70;;;2.50;;
1078;SDS011;528;47.872;11.478;2022-07-29T06:46:24;2.80;;;2.60;;
1078;SDS011;528;47.872;11.478;2022-07-29T06:48:52;6.40;;;2.83;;
1078;SDS011;528;47.872;11.478;2022-07-29T06:51:23;3.60;;;2.40;;
1078;SDS011;528;47.872;11.478;2022-07-29T07:33:37;2.93;;;2.73;;
1078;SDS011;528;47.872;11.478;2022-07-29T07:36:05;2.70;;;2.50;;
1078;SDS011;528;47.872;11.478;2022-07-29T07:38:42;5.23;;;2.60;;
1078;SDS011;528;47.872;11.478;2022-07-29T07:41:24;2.60;;;2.40;;
1078;SDS011;528;47.872;11.478;2022-07-29T08:07:40;2.03;;;1.93;;
1078;SDS011;528;47.872;11.478;2022-07-29T08:10:17;2.43;;;2.10;;
1078;SDS011;528;47.872;11.478;2022-07-29T08:12:59;2.20;;;2.10;;
1078;SDS011;528;47.872;11.478;2022-07-29T08:15:29;2.10;;;1.90;;
1078;SDS011;528;47.872;11.478;2022-07-29T08:17:56;2.50;;;2.30;;
1078;SDS011;528;47.872;11.478;2022-07-29T08:20:34;2.27;;;2.00;;
1078;SDS011;528;47.872;11.478;2022-07-29T08:23:05;2.20;;;2.10;;
1078;SDS011;528;47.872;11.478;2022-07-29T08:25:51;2.10;;;2.00;;
1078;SDS011;528;47.872;11.478;2022-07-29T08:28:18;2.50;;;2.30;;
1078;SDS011;528;47.872;11.478;2022-07-29T08:30:48;2.30;;;2.20;;
1078;SDS011;528;47.872;11.478;2022-07-29T08:33:15;2.60;;;2.40;;
1078;SDS011;528;47.872;11.478;2022-07-29T08:35:43;2.80;;;2.60;;
1078;SDS011;528;47.872;11.478;2022-07-29T08:38:13;2.33;;;2.23;;
1078;SDS011;528;47.872;11.478;2022-07-29T08:40:40;2.47;;;2.37;;
1078;SDS011;528;47.872;11.478;2022-07-29T08:43:08;2.47;;;2.37;;
1078;SDS011;528;47.872;11.478;2022-07-29T08:45:40;2.23;;;2.13;;
1078;SDS011;528;47.872;11.478;2022-07-29T08:48:10;2.40;;;2.27;;
1078;SDS011;528;47.872;11.478;2022-07-29T08:50:39;2.43;;;2.27;;
1078;SDS011;528;47.872;11.478;2022-07-29T08:53:08;2.70;;;2.50;;
1078;SDS011;528;47.872;11.478;2022-07-29T08:55:40;2.93;;;2.73;;
1078;SDS011;528;47.872;11.478;2022-07-29T08:58:10;2.63;;;2.40;;
1078;SDS011;528;47.872;11.478;2022-07-29T09:00:40;2.70;;;2.60;;
1078;SDS011;528;47.872;11.478;2022-07-29T09:03:09;2.13;;;2.03;;
1078;SDS011;528;47.872;11.478;2022-07-29T09:05:41;2.70;;;2.50;;
1078;SDS011;528;47.872;11.478;2022-07-29T09:08:09;2.73;;;2.37;;
1078;SDS011;528;47.872;11.478;2022-07-29T09:10:39;2.53;;;2.33;;
1078;SDS011;528;47.872;11.478;2022-07-29T09:13:06;2.70;;;2.50;;
1078;SDS011;528;47.872;11.478;2022-07-29T09:15:33;3.27;;;3.07;;
1078;SDS011;528;47.872;11.478;2022-07-29T09:18:01;3.07;;;2.87;;
1078;SDS011;528;47.872;11.478;2022-07-29T09:20:28;3.23;;;3.00;;
1078;SDS011;528;47.872;11.478;2022-07-29T09:23:34;3.70;;;2.97;;
1078;SDS011;528;47.872;11.478;2022-07-29T09:26:03;3.10;;;2.90;;
1078;SDS011;528;47.872;11.478;2022-07-29T09:28:32;3.40;;;3.20;;
1078;SDS011;528;47.872;11.478;2022-07-29T09:30:59;3.70;;;2.93;;
1078;SDS011;528;47.872;11.478;2022-07-29T09:33:31;3.33;;;3.13;;
1078;SDS011;528;47.872;11.478;2022-07-29T09:36:41;3.40;;;3.20;;
1078;SDS011;528;47.872;11.478;2022-07-29T09:46:20;4.77;;;2.93;;
1078;SDS011;528;47.872;11.478;2022-07-29T09:49:07;3.07;;;2.87;;
1078;SDS011;528;47.872;11.478;2022-07-29T09:51:40;3.77;;;3.40;;
1078;SDS011;528;47.872;11.478;2022-07-29T09:54:23;3.67;;;3.30;;
1078;SDS011;528;47.872;11.478;2022-07-29T09:56:59;4.33;;;4.00;;
1078;SDS011;528;47.872;11.478;2022-07-29T09:59:37;3.63;;;3.40;;
1078;SDS011;528;47.872;11.478;2022-07-29T10:05:31;4.13;;;3.83;;
1078;SDS011;528;47.872;11.478;2022-07-29T10:08:07;4.43;;;4.10;;
1078;SDS011;528;47.872;11.478;2022-07-29T10:10:36;5.00;;;3.80;;
1078;SDS011;528;47.872;11.478;2022-07-29T10:13:06;3.77;;;3.47;;
1078;SDS011;528;47.872;11.478;2022-07-29T10:15:43;3.73;;;3.53;;
1078;SDS011;528;47.872;11.478;2022-07-29T10:18:14;4.43;;;3.97;;
1078;SDS011;528;47.872;11.478;2022-07-29T10:23:37;4.00;;;3.70;;
1078;SDS011;528;47.872;11.478;2022-07-29T10:26:08;3.80;;;3.50;;
1078;SDS011;528;47.872;11.478;2022-07-29T10:28:45;4.43;;;4.13;;
1078;SDS011;528;47.872;11.478;2022-07-29T10:58:14;4.50;;;4.20;;
1078;SDS011;528;47.872;11.478;2022-07-29T11:00:49;5.00;;;4.50;;
1078;SDS011;528;47.872;11.478;2022-07-29T11:06:21;4.57;;;4.27;;
1078;SDS011;528;47.872;11.478;2022-07-29T11:09:15;4.20;;;3.93;;
1078;SDS011;528;47.872;11.478;2022-07-29T11:11:47;4.40;;;4.00;;
1078;SDS011;528;47.872;11.478;2022-07-29T11:14:17;4.60;;;4.20;;
1078;SDS011;528;47.872;11.478;2022-07-29T11:17:17;3.87;;;3.57;;
1078;SDS011;528;47.872;11.478;2022-07-29T11:19:45;4.27;;;3.97;;
1078;SDS011;528;47.872;11.478;2022-07-29T11:22:31;4.43;;;4.03;;
1078;SDS011;528;47.872;11.478;2022-07-29T11:25:13;3.60;;;3.40;;
1078;SDS011;528;47.872;11.478;2022-07-29T11:27:43;4.00;;;3.80;;
1078;SDS011;528;47.872;11.478;2022-07-29T11:30:18;3.63;;;3.43;;
1078;SDS011;528;47.872;11.478;2022-07-29T11:32:50;3.87;;;3.53;;
1078;SDS011;528;47.872;11.478;2022-07-29T11:35:20;4.13;;;3.83;;
1078;SDS011;528;47.872;11.478;2022-07-29T11:40:27;4.10;;;3.80;;
1078;SDS011;528;47.872;11.478;2022-07-29T11:46:45;4.20;;;3.80;;
1078;SDS011;528;47.872;11.478;2022-07-29T11:49:21;4.00;;;3.70;;
1078;SDS011;528;47.872;11.478;2022-07-29T11:51:54;4.80;;;3.93;;
1078;SDS011;528;47.872;11.478;2022-07-29T11:54:50;4.37;;;3.50;;
1078;SDS011;528;47.872;11.478;2022-07-29T11:57:26;5.90;;;4.23;;
1078;SDS011;528;47.872;11.478;2022-07-29T12:00:07;4.40;;;3.80;;
1078;SDS011;528;47.872;11.478;2022-07-29T12:02:44;3.57;;;3.23;;
1078;SDS011;528;47.872;11.478;2022-07-29T12:05:15;4.07;;;3.30;;
1078;SDS011;528;47.872;11.478;2022-07-29T12:07:46;4.10;;;3.80;;
1078;SDS011;528;47.872;11.478;2022-07-29T12:10:15;4.27;;;3.20;;
1078;SDS011;528;47.872;11.478;2022-07-29T12:12:44;4.00;;;3.80;;
1078;SDS011;528;47.872;11.478;2022-07-29T12:15:18;4.37;;;4.07;;
1078;SDS011;528;47.872;11.478;2022-07-29T12:17:48;3.93;;;3.63;;
1078;SDS011;528;47.872;11.478;2022-07-29T12:20:22;4.10;;;3.80;;
1078;SDS011;528;47.872;11.478;2022-07-29T12:22:50;3.80;;;3.53;;
1078;SDS011;528;47.872;11.478;2022-07-29T12:25:19;4.33;;;3.97;;
1078;SDS011;528;47.872;11.478;2022-07-29T12:28:01;4.60;;;4.30;;
1078;SDS011;528;47.872;11.478;2022-07-29T12:30:41;3.63;;;3.43;;
1078;SDS011;528;47.872;11.478;2022-07-29T12:33:16;4.33;;;4.03;;
1078;SDS011;528;47.872;11.478;2022-07-29T12:35:51;3.53;;;3.23;;
1078;SDS011;528;47.872;11.478;2022-07-29T12:38:28;3.87;;;3.57;;
1078;SDS011;528;47.872;11.478;2022-07-29T12:41:13;4.20;;;3.90;;
1078;SDS011;528;47.872;11.478;2022-07-29T12:43:52;4.37;;;3.60;;
1078;SDS011;528;47.872;11.478;2022-07-29T12:46:25;4.07;;;3.67;;
1078;SDS011;528;47.872;11.478;2022-07-29T12:48:57;3.90;;;3.60;;
1078;SDS011;528;47.872;11.478;2022-07-29T12:51:28;3.60;;;3.40;;
1078;SDS011;528;47.872;11.478;2022-07-29T12:54:03;4.17;;;3.83;;
1078;SDS011;528;47.872;11.478;2022-07-29T12:56:35;4.17;;;3.77;;
1078;SDS011;528;47.872;11.478;2022-07-29T12:59:13;4.30;;;3.90;;
1078;SDS011;528;47.872;11.478;2022-07-29T13:01:41;3.83;;;3.53;;
1078;SDS011;528;47.872;11.478;2022-07-29T13:04:11;3.77;;;3.57;;
1078;SDS011;528;47.872;11.478;2022-07-29T13:06:57;4.60;;;4.20;;
1078;SDS011;528;47.872;11.478;2022-07-29T13:09:35;4.37;;;4.07;;
1078;SDS011;528;47.872;11.478;2022-07-29T13:12:05;4.20;;;3.90;;
1078;SDS011;528;47.872;11.478;2022-07-29T13:14:35;4.10;;;3.80;;
1078;SDS011;528;47.872;11.478;2022-07-29T13:17:05;3.80;;;3.60;;
1078;SDS011;528;47.872;11.478;2022-07-29T13:19:38;4.03;;;3.77;;
1078;SDS011;528;47.872;11.478;2022-07-29T13:22:07;4.20;;;3.90;;
1078;SDS011;528;47.872;11.478;2022-07-29T13:24:44;4.70;;;3.97;;
1078;SDS011;528;47.872;11.478;2022-07-29T13:27:13;4.53;;;4.10;;
1078;SDS011;528;47.872;11.478;2022-07-29T13:29:41;4.00;;;3.70;;
1078;SDS011;528;47.872;11.478;2022-07-29T13:32:10;4.53;;;4.17;;
1078;SDS011;528;47.872;11.478;2022-07-29T13:37:16;3.80;;;3.60;;
1078;SDS011;528;47.872;11.478;2022-07-29T13:39:53;3.60;;;3.30;;
1078;SDS011;528;47.872;11.478;2022-07-29T13:42:34;3.40;;;3.20;;
1078;SDS011;528;47.872;11.478;2022-07-29T13:45:24;3.60;;;3.40;;
1078;SDS011;528;47.872;11.478;2022-07-29T13:47:58;3.90;;;3.60;;
1078;SDS011;528;47.872;11.478;2022-07-29T13:50:27;3.30;;;3.10;;
1078;SDS011;528;47.872;11.478;2022-07-29T13:55:48;3.77;;;3.47;;
1078;SDS011;528;47.872;11.478;2022-07-29T13:58:35;3.40;;;3.20;;
1078;SDS011;528;47.872;11.478;2022-07-29T14:01:09;3.67;;;3.37;;
1078;SDS011;528;47.872;11.478;2022-07-29T14:09:10;3.23;;;3.03;;
1078;SDS011;528;47.872;11.478;2022-07-29T14:11:42;3.40;;;3.20;;
1078;SDS011;528;47.872;11.478;2022-07-29T14:14:24;3.80;;;3.50;;
1078;SDS011;528;47.872;11.478;2022-07-29T17:11:09;4.87;;;4.40;;
1078;SDS011;528;47.872;11.478;2022-07-29T17:13:37;5.37;;;4.97;;
1078;SDS011;528;47.872;11.478;2022-07-29T17:21:24;5.40;;;4.90;;
1078;SDS011;528;47.872;11.478;2022-07-29T17:24:01;4.87;;;4.50;;
1078;SDS011;528;47.872;11.478;2022-07-29T20:21:10;2.60;;;2.40;;
1078;SDS011;528;47.872;11.478;2022-07-29T20:26:41;2.53;;;2.30;;
1078;SDS011;528;47.872;11.478;2022-07-29T20:31:46;2.87;;;2.67;;
1078;SDS011;528;47.872;11.478;2022-07-29T20:34:16;2.90;;;2.70;;
1078;SDS011;528;47.872;11.478;2022-07-29T20:36:48;2.60;;;2.40;;
1078;SDS011;528;47.872;11.478;2022-07-29T20:39:21;4.30;;;2.67;;
1078;SDS011;528;47.872;11.478;2022-07-29T20:41:52;2.73;;;2.53;;
1078;SDS011;528;47.872;11.478;2022-07-29T20:44:20;2.40;;;2.23;;
1078;SDS011;528;47.872;11.478;2022-07-29T20:52:26;2.60;;;2.40;;
1078;SDS011;528;47.872;11.478;2022-07-29T21:00:25;2.50;;;2.30;;
1078;SDS011;528;47.872;11.478;2022-07-29T21:02:53;3.33;;;3.03;;
1078;SDS011;528;47.872;11.478;2022-07-29T21:05:22;2.50;;;2.40;;
1078;SDS011;528;47.872;11.478;2022-07-29T21:07:56;3.10;;;2.90;;
1078;SDS011;528;47.872;11.478;2022-07-29T21:10:27;3.00;;;2.80;;
1078;SDS011;528;47.872;11.478;2022-07-29T21:12:55;2.50;;;2.30;;
1078;SDS011;528;47.872;11.478;2022-07-29T21:15:23;2.73;;;2.53;;
1078;SDS011;528;47.872;11.478;2022-07-29T21:17:54;3.23;;;2.90;;
1078;SDS011;528;47.872;11.478;2022-07-29T21:20:27;2.80;;;2.60;;
1078;SDS011;528;47.872;11.478;2022-07-29T21:22:56;2.83;;;2.63;;
1078;SDS011;528;47.872;11.478;2022-07-29T21:25:27;2.90;;;2.70;;
1078;SDS011;528;47.872;11.478;2022-07-29T21:28:28;4.43;;;2.93;;
1078;SDS011;528;47.872;11.478;2022-07-29T21:31:20;2.50;;;2.30;;
1078;SDS011;528;47.872;11.478;2022-07-29T21:34:07;2.37;;;2.27;;
1078;SDS011;528;47.872;11.478;2022-07-29T21:36:54;3.10;;;2.90;;
1078;SDS011;528;47.872;11.478;2022-07-29T21:39:35;2.57;;;2.37;;
1078;SDS011;528;47.872;11.478;2022-07-29T21:42:27;2.97;;;2.70;;
1078;SDS011;528;47.872;11.478;2022-07-29T21:48:15;4.23;;;2.80;;
1078;SDS011;528;47.872;11.478;2022-07-29T21:51:20;3.50;;;2.70;;
1078;SDS011;528;47.872;11.478;2022-07-29T21:54:07;2.90;;;2.70;;
1078;SDS011;528;47.872;11.478;2022-07-29T21:57:03;2.67;;;2.47;;
1078;SDS011;528;47.872;11.478;2022-07-29T21:59:40;2.50;;;2.30;;
1078;SDS011;528;47.872;11.478;2022-07-29T22:02:24;3.43;;;3.07;;
1078;SDS011;528;47.872;11.478;2022-07-29T22:05:16;3.17;;;2.93;;
1078;SDS011;528;47.872;11.478;2022-07-29T22:10:00;3.83;;;3.20;;
1078;SDS011;528;47.872;11.478;2022-07-29T22:11:16;2.70;;;2.50;;
1078;SDS011;528;47.872;11.478;2022-07-29T22:30:01;2.80;;;2.60;;
1078;SDS011;528;47.872;11.478;2022-07-29T22:39:17;3.50;;;3.20;;
1078;SDS011;528;47.872;11.478;2022-07-29T22:44:40;3.00;;;2.80;;
1078;SDS011;528;47.872;11.478;2022-07-29T22:47:11;3.50;;;3.20;;
1078;SDS011;528;47.872;11.478;2022-07-29T22:49:38;2.93;;;2.73;;
1078;SDS011;528;47.872;11.478;2022-07-29T22:52:10;3.43;;;3.13;;
1078;SDS011;528;47.872;11.478;2022-07-29T22:54:41;4.03;;;3.73;;
1078;SDS011;528;47.872;11.478;2022-07-29T22:57:13;3.00;;;2.80;;
1078;SDS011;528;47.872;11.478;2022-07-29T22:59:41;3.00;;;2.80;;
1078;SDS011;528;47.872;11.478;2022-07-29T23:02:09;3.47;;;3.20;;
1078;SDS011;528;47.872;11.478;2022-07-29T23:04:37;4.37;;;3.40;;
1078;SDS011;528;47.872;11.478;2022-07-29T23:07:10;3.40;;;3.10;;
1078;SDS011;528;47.872;11.478;2022-07-29T23:09:45;3.50;;;3.30;;
1078;SDS011;528;47.872;11.478;2022-07-29T23:12:12;3.30;;;2.97;;
1078;SDS011;528;47.872;11.478;2022-07-29T23:14:41;3.40;;;3.10;;
1078;SDS011;528;47.872;11.478;2022-07-29T23:17:11;3.33;;;3.03;;
1078;SDS011;528;47.872;11.478;2022-07-29T23:19:41;3.47;;;3.17;;
1078;SDS011;528;47.872;11.478;2022-07-29T23:22:11;3.30;;;3.00;;
1078;SDS011;528;47.872;11.478;2022-07-29T23:24:39;3.93;;;3.63;;
1078;SDS011;528;47.872;11.478;2022-07-29T23:27:21;3.83;;;3.53;;
1078;SDS011;528;47.872;11.478;2022-07-29T23:29:56;3.30;;;3.00;;
1078;SDS011;528;47.872;11.478;2022-07-29T23:32:26;3.60;;;3.33;;
1078;SDS011;528;47.872;11.478;2022-07-29T23:35:00;3.47;;;3.20;;
1078;SDS011;528;47.872;11.478;2022-07-29T23:37:29;3.53;;;3.33;;
1078;SDS011;528;47.872;11.478;2022-07-29T23:39:59;3.17;;;2.90;;
1078;SDS011;528;47.872;11.478;2022-07-29T23:42:29;3.57;;;3.37;;
1078;SDS011;528;47.872;11.478;2022-07-29T23:45:01;3.20;;;2.90;;
1078;SDS011;528;47.872;11.478;2022-07-29T23:47:28;3.43;;;3.10;;
1078;SDS011;528;47.872;11.478;2022-07-29T23:50:02;3.23;;;3.03;;
1078;SDS011;528;47.872;11.478;2022-07-29T23:52:30;3.50;;;3.20;;
1078;SDS011;528;47.872;11.478;2022-07-29T23:55:00;3.90;;;2.87;;
1078;SDS011;528;47.872;11.478;2022-07-29T23:57:32;3.50;;;3.20;;
